sensor_id;sensor_type;location;lat;lon;timestamp;temperature;humidity
24426;DHT22;12611;44.446;26.000;2022-09-09T00:00:25;23.00;71.30
24426;DHT22;12611;44.446;26.000;2022-09-09T00:03:00;23.00;71.30
24426;DHT22;12611;44.446;26.000;2022-09-09T00:05:34;22.90;71.30
24426;DHT22;12611;44.446;26.000;2022-09-09T00:08:15;22.90;71.40
24426;DHT22;12611;44.446;26.000;2022-09-09T00:10:49;22.90;71.60
24426;DHT22;12611;44.446;26.000;2022-09-09T00:13:22;22.90;71.70
24426;DHT22;12611;44.446;26.000;2022-09-09T00:15:59;22.80;71.90
24426;DHT22;12611;44.446;26.000;2022-09-09T00:18:31;22.80;71.90
24426;DHT22;12611;44.446;26.000;2022-09-09T00:21:06;22.80;72.00
24426;DHT22;12611;44.446;26.000;2022-09-09T00:23:39;22.80;72.10
24426;DHT22;12611;44.446;26.000;2022-09-09T00:26:11;22.80;72.20
24426;DHT22;12611;44.446;26.000;2022-09-09T00:28:46;22.70;72.30
24426;DHT22;12611;44.446;26.000;2022-09-09T00:31:23;22.70;72.60
24426;DHT22;12611;44.446;26.000;2022-09-09T00:33:53;22.70;72.70
24426;DHT22;12611;44.446;26.000;2022-09-09T00:36:23;22.60;72.70
24426;DHT22;12611;44.446;26.000;2022-09-09T00:38:57;22.50;73.00
24426;DHT22;12611;44.446;26.000;2022-09-09T00:41:36;22.50;73.30
24426;DHT22;12611;44.446;26.000;2022-09-09T00:44:20;22.40;73.40
24426;DHT22;12611;44.446;26.000;2022-09-09T00:47:04;22.50;73.50
24426;DHT22;12611;44.446;26.000;2022-09-09T00:49:43;22.40;73.80
24426;DHT22;12611;44.446;26.000;2022-09-09T00:52:26;22.30;73.80
24426;DHT22;12611;44.446;26.000;2022-09-09T00:55:05;22.30;74.00
24426;DHT22;12611;44.446;26.000;2022-09-09T00:57:35;22.20;74.10
24426;DHT22;12611;44.446;26.000;2022-09-09T01:00:21;22.20;74.10
24426;DHT22;12611;44.446;26.000;2022-09-09T01:02:59;22.20;74.40
24426;DHT22;12611;44.446;26.000;2022-09-09T01:05:34;22.10;74.60
24426;DHT22;12611;44.446;26.000;2022-09-09T01:08:11;22.10;74.80
24426;DHT22;12611;44.446;26.000;2022-09-09T01:10:51;22.00;74.90
24426;DHT22;12611;44.446;26.000;2022-09-09T01:13:24;22.00;74.90
24426;DHT22;12611;44.446;26.000;2022-09-09T01:15:54;22.00;75.00
24426;DHT22;12611;44.446;26.000;2022-09-09T01:18:30;22.00;75.30
24426;DHT22;12611;44.446;26.000;2022-09-09T01:21:07;21.90;75.30
24426;DHT22;12611;44.446;26.000;2022-09-09T01:24:08;21.90;75.60
24426;DHT22;12611;44.446;26.000;2022-09-09T01:26:43;21.80;75.90
24426;DHT22;12611;44.446;26.000;2022-09-09T01:29:13;21.80;75.90
24426;DHT22;12611;44.446;26.000;2022-09-09T01:32:41;21.80;76.00
24426;DHT22;12611;44.446;26.000;2022-09-09T01:35:41;21.70;76.20
24426;DHT22;12611;44.446;26.000;2022-09-09T01:38:11;21.70;76.30
24426;DHT22;12611;44.446;26.000;2022-09-09T01:40:39;21.60;76.40
24426;DHT22;12611;44.446;26.000;2022-09-09T01:43:09;21.60;76.60
24426;DHT22;12611;44.446;26.000;2022-09-09T01:45:38;21.60;76.80
24426;DHT22;12611;44.446;26.000;2022-09-09T01:48:07;21.50;77.80
24426;DHT22;12611;44.446;26.000;2022-09-09T01:50:35;21.50;77.10
24426;DHT22;12611;44.446;26.000;2022-09-09T01:53:04;21.50;77.40
24426;DHT22;12611;44.446;26.000;2022-09-09T01:55:36;21.50;77.40
24426;DHT22;12611;44.446;26.000;2022-09-09T01:58:17;21.50;77.60
24426;DHT22;12611;44.446;26.000;2022-09-09T02:00:54;21.50;77.70
24426;DHT22;12611;44.446;26.000;2022-09-09T02:03:28;21.40;77.60
24426;DHT22;12611;44.446;26.000;2022-09-09T02:06:02;21.40;77.70
24426;DHT22;12611;44.446;26.000;2022-09-09T02:08:36;21.40;77.90
24426;DHT22;12611;44.446;26.000;2022-09-09T02:11:08;21.40;78.00
24426;DHT22;12611;44.446;26.000;2022-09-09T02:13:41;21.40;78.20
24426;DHT22;12611;44.446;26.000;2022-09-09T02:16:14;21.30;78.30
24426;DHT22;12611;44.446;26.000;2022-09-09T02:18:50;21.30;78.40
24426;DHT22;12611;44.446;26.000;2022-09-09T02:21:19;21.30;78.50
24426;DHT22;12611;44.446;26.000;2022-09-09T02:23:50;21.30;78.70
24426;DHT22;12611;44.446;26.000;2022-09-09T02:26:20;21.30;78.90
24426;DHT22;12611;44.446;26.000;2022-09-09T02:28:53;21.30;78.90
24426;DHT22;12611;44.446;26.000;2022-09-09T02:31:24;21.20;79.10
24426;DHT22;12611;44.446;26.000;2022-09-09T02:33:56;21.20;79.10
24426;DHT22;12611;44.446;26.000;2022-09-09T02:36:29;21.20;79.30
24426;DHT22;12611;44.446;26.000;2022-09-09T02:39:01;21.20;81.10
24426;DHT22;12611;44.446;26.000;2022-09-09T02:41:33;21.10;80.70
24426;DHT22;12611;44.446;26.000;2022-09-09T02:44:05;21.20;80.50
24426;DHT22;12611;44.446;26.000;2022-09-09T02:46:48;21.10;80.40
24426;DHT22;12611;44.446;26.000;2022-09-09T02:49:23;21.10;80.40
24426;DHT22;12611;44.446;26.000;2022-09-09T02:52:00;21.10;80.40
24426;DHT22;12611;44.446;26.000;2022-09-09T02:54:30;21.10;80.50
24426;DHT22;12611;44.446;26.000;2022-09-09T02:57:04;21.00;80.50
24426;DHT22;12611;44.446;26.000;2022-09-09T02:59:35;21.00;80.70
24426;DHT22;12611;44.446;26.000;2022-09-09T03:02:03;21.00;80.90
24426;DHT22;12611;44.446;26.000;2022-09-09T03:04:32;20.90;80.90
24426;DHT22;12611;44.446;26.000;2022-09-09T03:07:00;20.90;81.00
24426;DHT22;12611;44.446;26.000;2022-09-09T03:09:30;20.90;81.00
24426;DHT22;12611;44.446;26.000;2022-09-09T03:11:59;20.90;81.00
24426;DHT22;12611;44.446;26.000;2022-09-09T03:14:27;20.90;81.20
24426;DHT22;12611;44.446;26.000;2022-09-09T03:16:57;20.90;81.30
24426;DHT22;12611;44.446;26.000;2022-09-09T03:19:27;20.90;81.40
24426;DHT22;12611;44.446;26.000;2022-09-09T03:21:56;20.80;81.40
24426;DHT22;12611;44.446;26.000;2022-09-09T03:24:25;20.80;81.40
24426;DHT22;12611;44.446;26.000;2022-09-09T03:26:53;20.80;81.50
24426;DHT22;12611;44.446;26.000;2022-09-09T03:29:22;20.80;81.70
24426;DHT22;12611;44.446;26.000;2022-09-09T03:31:50;20.80;81.80
24426;DHT22;12611;44.446;26.000;2022-09-09T03:34:20;20.80;81.90
24426;DHT22;12611;44.446;26.000;2022-09-09T03:36:49;20.80;82.00
24426;DHT22;12611;44.446;26.000;2022-09-09T03:39:17;20.70;82.00
24426;DHT22;12611;44.446;26.000;2022-09-09T03:41:53;20.70;82.10
24426;DHT22;12611;44.446;26.000;2022-09-09T03:44:21;20.70;82.20
24426;DHT22;12611;44.446;26.000;2022-09-09T03:46:49;20.70;82.20
24426;DHT22;12611;44.446;26.000;2022-09-09T03:49:19;20.70;82.30
24426;DHT22;12611;44.446;26.000;2022-09-09T03:51:48;20.70;82.60
24426;DHT22;12611;44.446;26.000;2022-09-09T03:54:17;20.70;82.70
24426;DHT22;12611;44.446;26.000;2022-09-09T03:56:45;20.60;82.60
24426;DHT22;12611;44.446;26.000;2022-09-09T03:59:13;20.60;82.60
24426;DHT22;12611;44.446;26.000;2022-09-09T04:01:42;20.60;82.70
24426;DHT22;12611;44.446;26.000;2022-09-09T04:04:11;20.60;82.80
24426;DHT22;12611;44.446;26.000;2022-09-09T04:06:41;20.60;82.80
24426;DHT22;12611;44.446;26.000;2022-09-09T04:09:09;20.60;83.70
24426;DHT22;12611;44.446;26.000;2022-09-09T04:11:37;20.60;82.90
24426;DHT22;12611;44.446;26.000;2022-09-09T04:14:05;20.60;83.00
24426;DHT22;12611;44.446;26.000;2022-09-09T04:16:34;20.70;83.20
24426;DHT22;12611;44.446;26.000;2022-09-09T04:19:03;20.60;83.40
24426;DHT22;12611;44.446;26.000;2022-09-09T04:21:33;20.70;84.00
24426;DHT22;12611;44.446;26.000;2022-09-09T04:24:03;20.60;83.90
24426;DHT22;12611;44.446;26.000;2022-09-09T04:26:31;20.70;84.00
24426;DHT22;12611;44.446;26.000;2022-09-09T04:29:00;20.70;84.40
24426;DHT22;12611;44.446;26.000;2022-09-09T04:31:28;20.70;84.90
24426;DHT22;12611;44.446;26.000;2022-09-09T04:33:57;20.70;85.00
24426;DHT22;12611;44.446;26.000;2022-09-09T04:36:25;20.70;85.00
24426;DHT22;12611;44.446;26.000;2022-09-09T04:38:53;20.80;85.00
24426;DHT22;12611;44.446;26.000;2022-09-09T04:41:23;20.80;85.20
24426;DHT22;12611;44.446;26.000;2022-09-09T04:43:52;20.80;85.80
24426;DHT22;12611;44.446;26.000;2022-09-09T04:46:20;20.80;85.50
24426;DHT22;12611;44.446;26.000;2022-09-09T04:48:49;20.80;85.70
24426;DHT22;12611;44.446;26.000;2022-09-09T04:51:19;20.80;85.80
24426;DHT22;12611;44.446;26.000;2022-09-09T04:53:48;20.90;86.00
24426;DHT22;12611;44.446;26.000;2022-09-09T04:56:19;20.90;85.80
24426;DHT22;12611;44.446;26.000;2022-09-09T04:58:49;20.90;86.10
24426;DHT22;12611;44.446;26.000;2022-09-09T05:01:18;21.00;86.10
24426;DHT22;12611;44.446;26.000;2022-09-09T05:03:48;21.00;85.90
24426;DHT22;12611;44.446;26.000;2022-09-09T05:06:18;21.00;86.00
24426;DHT22;12611;44.446;26.000;2022-09-09T05:08:46;21.10;85.80
24426;DHT22;12611;44.446;26.000;2022-09-09T05:11:17;21.10;85.70
24426;DHT22;12611;44.446;26.000;2022-09-09T05:13:46;21.20;85.50
24426;DHT22;12611;44.446;26.000;2022-09-09T05:16:18;21.30;85.40
24426;DHT22;12611;44.446;26.000;2022-09-09T05:18:47;21.40;85.20
24426;DHT22;12611;44.446;26.000;2022-09-09T05:21:17;21.50;85.10
24426;DHT22;12611;44.446;26.000;2022-09-09T05:23:46;21.50;84.90
24426;DHT22;12611;44.446;26.000;2022-09-09T05:26:16;21.60;84.70
24426;DHT22;12611;44.446;26.000;2022-09-09T05:28:46;21.70;84.70
24426;DHT22;12611;44.446;26.000;2022-09-09T05:31:16;21.70;84.40
24426;DHT22;12611;44.446;26.000;2022-09-09T05:33:47;21.70;84.10
24426;DHT22;12611;44.446;26.000;2022-09-09T05:36:17;21.80;84.10
24426;DHT22;12611;44.446;26.000;2022-09-09T05:38:46;21.80;84.00
24426;DHT22;12611;44.446;26.000;2022-09-09T05:41:15;21.90;83.80
24426;DHT22;12611;44.446;26.000;2022-09-09T05:43:44;21.90;83.50
24426;DHT22;12611;44.446;26.000;2022-09-09T05:46:15;22.00;83.40
24426;DHT22;12611;44.446;26.000;2022-09-09T05:48:46;22.10;83.40
24426;DHT22;12611;44.446;26.000;2022-09-09T05:51:16;22.10;83.30
24426;DHT22;12611;44.446;26.000;2022-09-09T05:53:45;22.20;83.60
24426;DHT22;12611;44.446;26.000;2022-09-09T05:56:15;22.20;83.00
24426;DHT22;12611;44.446;26.000;2022-09-09T05:58:45;22.30;82.80
24426;DHT22;12611;44.446;26.000;2022-09-09T06:01:15;22.30;82.70
24426;DHT22;12611;44.446;26.000;2022-09-09T06:03:46;22.40;82.40
24426;DHT22;12611;44.446;26.000;2022-09-09T06:06:16;22.50;82.10
24426;DHT22;12611;44.446;26.000;2022-09-09T06:08:48;22.60;81.90
24426;DHT22;12611;44.446;26.000;2022-09-09T06:11:19;22.60;81.60
24426;DHT22;12611;44.446;26.000;2022-09-09T06:13:48;22.70;81.20
24426;DHT22;12611;44.446;26.000;2022-09-09T06:16:19;22.80;80.70
24426;DHT22;12611;44.446;26.000;2022-09-09T06:18:52;22.90;80.40
24426;DHT22;12611;44.446;26.000;2022-09-09T06:21:22;23.00;79.80
24426;DHT22;12611;44.446;26.000;2022-09-09T06:23:50;23.00;79.30
24426;DHT22;12611;44.446;26.000;2022-09-09T06:26:25;23.10;79.00
24426;DHT22;12611;44.446;26.000;2022-09-09T06:28:55;23.20;78.70
24426;DHT22;12611;44.446;26.000;2022-09-09T06:31:27;23.20;78.50
24426;DHT22;12611;44.446;26.000;2022-09-09T06:33:59;23.30;78.20
24426;DHT22;12611;44.446;26.000;2022-09-09T06:36:29;23.40;78.00
24426;DHT22;12611;44.446;26.000;2022-09-09T06:38:58;23.40;77.60
24426;DHT22;12611;44.446;26.000;2022-09-09T06:41:28;23.50;77.20
24426;DHT22;12611;44.446;26.000;2022-09-09T06:43:57;23.50;77.70
24426;DHT22;12611;44.446;26.000;2022-09-09T06:46:26;23.60;76.80
24426;DHT22;12611;44.446;26.000;2022-09-09T06:48:55;23.60;75.80
24426;DHT22;12611;44.446;26.000;2022-09-09T06:51:29;23.70;75.20
24426;DHT22;12611;44.446;26.000;2022-09-09T06:53:59;23.80;75.00
24426;DHT22;12611;44.446;26.000;2022-09-09T06:56:30;23.80;74.40
24426;DHT22;12611;44.446;26.000;2022-09-09T06:59:00;23.90;74.60
24426;DHT22;12611;44.446;26.000;2022-09-09T07:01:32;24.00;74.60
24426;DHT22;12611;44.446;26.000;2022-09-09T07:04:02;24.00;75.10
24426;DHT22;12611;44.446;26.000;2022-09-09T07:06:33;24.10;73.80
24426;DHT22;12611;44.446;26.000;2022-09-09T07:09:04;24.20;73.70
24426;DHT22;12611;44.446;26.000;2022-09-09T07:11:34;24.30;73.10
24426;DHT22;12611;44.446;26.000;2022-09-09T07:14:04;24.30;73.00
24426;DHT22;12611;44.446;26.000;2022-09-09T07:16:33;24.40;72.50
24426;DHT22;12611;44.446;26.000;2022-09-09T07:19:04;24.50;72.50
24426;DHT22;12611;44.446;26.000;2022-09-09T07:21:34;24.50;72.20
24426;DHT22;12611;44.446;26.000;2022-09-09T07:24:03;24.60;71.90
24426;DHT22;12611;44.446;26.000;2022-09-09T07:26:34;24.60;71.70
24426;DHT22;12611;44.446;26.000;2022-09-09T07:29:03;24.70;71.20
24426;DHT22;12611;44.446;26.000;2022-09-09T07:31:33;24.80;70.80
24426;DHT22;12611;44.446;26.000;2022-09-09T07:34:03;24.80;70.50
24426;DHT22;12611;44.446;26.000;2022-09-09T07:36:34;24.90;70.70
24426;DHT22;12611;44.446;26.000;2022-09-09T07:39:04;24.90;70.70
24426;DHT22;12611;44.446;26.000;2022-09-09T07:41:35;25.00;71.30
24426;DHT22;12611;44.446;26.000;2022-09-09T07:44:05;25.00;70.60
24426;DHT22;12611;44.446;26.000;2022-09-09T07:46:35;25.10;70.70
24426;DHT22;12611;44.446;26.000;2022-09-09T07:49:04;25.20;70.30
24426;DHT22;12611;44.446;26.000;2022-09-09T07:51:35;25.20;69.90
24426;DHT22;12611;44.446;26.000;2022-09-09T07:54:06;25.30;68.70
24426;DHT22;12611;44.446;26.000;2022-09-09T07:56:37;25.30;68.80
24426;DHT22;12611;44.446;26.000;2022-09-09T07:59:07;25.40;68.80
24426;DHT22;12611;44.446;26.000;2022-09-09T08:01:37;25.40;68.30
24426;DHT22;12611;44.446;26.000;2022-09-09T08:04:08;25.40;68.00
24426;DHT22;12611;44.446;26.000;2022-09-09T08:06:40;25.50;68.00
24426;DHT22;12611;44.446;26.000;2022-09-09T08:09:10;25.50;67.70
24426;DHT22;12611;44.446;26.000;2022-09-09T08:11:39;25.60;67.90
24426;DHT22;12611;44.446;26.000;2022-09-09T08:14:09;25.60;67.70
24426;DHT22;12611;44.446;26.000;2022-09-09T08:16:41;25.70;67.90
24426;DHT22;12611;44.446;26.000;2022-09-09T08:19:09;25.80;67.80
24426;DHT22;12611;44.446;26.000;2022-09-09T08:21:40;25.80;67.70
24426;DHT22;12611;44.446;26.000;2022-09-09T08:24:10;25.90;67.60
24426;DHT22;12611;44.446;26.000;2022-09-09T08:26:40;26.00;67.20
24426;DHT22;12611;44.446;26.000;2022-09-09T08:29:10;26.10;67.00
24426;DHT22;12611;44.446;26.000;2022-09-09T08:31:41;26.10;66.60
24426;DHT22;12611;44.446;26.000;2022-09-09T08:34:10;26.20;66.60
24426;DHT22;12611;44.446;26.000;2022-09-09T08:36:42;26.30;66.60
24426;DHT22;12611;44.446;26.000;2022-09-09T08:39:12;26.40;66.90
24426;DHT22;12611;44.446;26.000;2022-09-09T08:42:06;26.50;66.90
24426;DHT22;12611;44.446;26.000;2022-09-09T08:44:57;26.50;66.70
24426;DHT22;12611;44.446;26.000;2022-09-09T08:47:37;26.60;66.30
24426;DHT22;12611;44.446;26.000;2022-09-09T08:50:19;26.70;66.00
24426;DHT22;12611;44.446;26.000;2022-09-09T08:52:54;26.80;65.90
24426;DHT22;12611;44.446;26.000;2022-09-09T08:55:37;26.80;65.90
24426;DHT22;12611;44.446;26.000;2022-09-09T08:58:12;26.90;65.90
24426;DHT22;12611;44.446;26.000;2022-09-09T09:01:00;26.90;65.60
24426;DHT22;12611;44.446;26.000;2022-09-09T09:03:38;27.10;65.30
24426;DHT22;12611;44.446;26.000;2022-09-09T09:06:26;27.10;65.20
24426;DHT22;12611;44.446;26.000;2022-09-09T09:09:10;27.10;64.90
24426;DHT22;12611;44.446;26.000;2022-09-09T09:11:44;27.20;65.20
24426;DHT22;12611;44.446;26.000;2022-09-09T09:14:18;27.30;65.60
24426;DHT22;12611;44.446;26.000;2022-09-09T09:16:53;27.30;65.00
24426;DHT22;12611;44.446;26.000;2022-09-09T09:19:23;27.40;64.50
24426;DHT22;12611;44.446;26.000;2022-09-09T09:21:58;27.40;64.30
24426;DHT22;12611;44.446;26.000;2022-09-09T09:24:36;27.50;64.20
24426;DHT22;12611;44.446;26.000;2022-09-09T09:27:16;27.60;64.10
24426;DHT22;12611;44.446;26.000;2022-09-09T09:29:48;27.60;63.60
24426;DHT22;12611;44.446;26.000;2022-09-09T09:32:39;27.70;63.20
24426;DHT22;12611;44.446;26.000;2022-09-09T09:35:12;27.80;64.30
24426;DHT22;12611;44.446;26.000;2022-09-09T09:37:41;27.80;62.70
24426;DHT22;12611;44.446;26.000;2022-09-09T09:40:33;27.90;63.00
24426;DHT22;12611;44.446;26.000;2022-09-09T09:43:01;27.90;62.40
24426;DHT22;12611;44.446;26.000;2022-09-09T09:45:41;28.00;62.20
24426;DHT22;12611;44.446;26.000;2022-09-09T09:48:31;28.10;62.20
24426;DHT22;12611;44.446;26.000;2022-09-09T09:51:03;28.20;62.30
24426;DHT22;12611;44.446;26.000;2022-09-09T09:53:36;28.30;61.80
24426;DHT22;12611;44.446;26.000;2022-09-09T09:56:09;28.30;61.30
24426;DHT22;12611;44.446;26.000;2022-09-09T09:58:49;28.40;60.20
24426;DHT22;12611;44.446;26.000;2022-09-09T10:01:20;28.50;60.30
24426;DHT22;12611;44.446;26.000;2022-09-09T10:03:51;28.50;60.80
24426;DHT22;12611;44.446;26.000;2022-09-09T10:06:30;28.60;61.10
24426;DHT22;12611;44.446;26.000;2022-09-09T10:08:59;28.70;60.70
24426;DHT22;12611;44.446;26.000;2022-09-09T10:11:44;28.80;60.80
24426;DHT22;12611;44.446;26.000;2022-09-09T10:14:20;28.80;60.50
24426;DHT22;12611;44.446;26.000;2022-09-09T10:17:09;28.90;60.60
24426;DHT22;12611;44.446;26.000;2022-09-09T10:19:45;28.90;60.80
24426;DHT22;12611;44.446;26.000;2022-09-09T10:22:25;28.90;60.50
24426;DHT22;12611;44.446;26.000;2022-09-09T10:25:15;29.00;60.80
24426;DHT22;12611;44.446;26.000;2022-09-09T10:28:06;29.00;60.60
24426;DHT22;12611;44.446;26.000;2022-09-09T10:30:47;29.00;60.30
24426;DHT22;12611;44.446;26.000;2022-09-09T10:33:25;29.00;60.30
24426;DHT22;12611;44.446;26.000;2022-09-09T10:36:01;29.00;60.30
24426;DHT22;12611;44.446;26.000;2022-09-09T10:38:39;29.10;60.10
24426;DHT22;12611;44.446;26.000;2022-09-09T10:41:17;29.10;60.50
24426;DHT22;12611;44.446;26.000;2022-09-09T10:44:06;29.10;60.40
24426;DHT22;12611;44.446;26.000;2022-09-09T10:46:49;29.20;60.30
24426;DHT22;12611;44.446;26.000;2022-09-09T10:49:30;29.20;60.10
24426;DHT22;12611;44.446;26.000;2022-09-09T10:52:06;29.20;59.90
24426;DHT22;12611;44.446;26.000;2022-09-09T10:54:46;29.30;59.70
24426;DHT22;12611;44.446;26.000;2022-09-09T10:57:27;29.30;59.50
24426;DHT22;12611;44.446;26.000;2022-09-09T11:00:03;29.40;59.40
24426;DHT22;12611;44.446;26.000;2022-09-09T11:02:34;29.40;58.70
24426;DHT22;12611;44.446;26.000;2022-09-09T11:05:05;29.40;59.10
24426;DHT22;12611;44.446;26.000;2022-09-09T11:07:40;29.40;59.20
24426;DHT22;12611;44.446;26.000;2022-09-09T11:10:20;29.50;59.30
24426;DHT22;12611;44.446;26.000;2022-09-09T11:12:54;29.50;59.10
24426;DHT22;12611;44.446;26.000;2022-09-09T11:15:31;29.50;58.90
24426;DHT22;12611;44.446;26.000;2022-09-09T11:18:02;29.50;58.40
24426;DHT22;12611;44.446;26.000;2022-09-09T11:20:33;29.50;58.40
24426;DHT22;12611;44.446;26.000;2022-09-09T11:23:04;29.60;58.20
24426;DHT22;12611;44.446;26.000;2022-09-09T11:25:39;29.60;58.20
24426;DHT22;12611;44.446;26.000;2022-09-09T11:28:32;29.60;57.60
24426;DHT22;12611;44.446;26.000;2022-09-09T11:31:21;29.60;57.60
24426;DHT22;12611;44.446;26.000;2022-09-09T11:34:02;29.60;57.60
24426;DHT22;12611;44.446;26.000;2022-09-09T11:36:58;29.60;58.00
24426;DHT22;12611;44.446;26.000;2022-09-09T11:40:08;29.60;57.90
24426;DHT22;12611;44.446;26.000;2022-09-09T11:42:37;29.70;57.90
24426;DHT22;12611;44.446;26.000;2022-09-09T11:45:11;29.70;57.80
24426;DHT22;12611;44.446;26.000;2022-09-09T11:47:52;29.70;57.70
24426;DHT22;12611;44.446;26.000;2022-09-09T11:50:33;29.70;57.70
24426;DHT22;12611;44.446;26.000;2022-09-09T11:53:06;29.70;57.80
24426;DHT22;12611;44.446;26.000;2022-09-09T11:55:43;29.70;57.60
24426;DHT22;12611;44.446;26.000;2022-09-09T11:58:17;29.80;57.60
24426;DHT22;12611;44.446;26.000;2022-09-09T12:00:48;29.80;57.40
24426;DHT22;12611;44.446;26.000;2022-09-09T12:03:36;29.80;57.50
24426;DHT22;12611;44.446;26.000;2022-09-09T12:06:13;29.80;57.30
24426;DHT22;12611;44.446;26.000;2022-09-09T12:08:45;29.80;57.20
24426;DHT22;12611;44.446;26.000;2022-09-09T12:11:24;29.80;57.00
24426;DHT22;12611;44.446;26.000;2022-09-09T12:13:54;29.90;56.90
24426;DHT22;12611;44.446;26.000;2022-09-09T12:16:30;29.90;57.20
24426;DHT22;12611;44.446;26.000;2022-09-09T12:19:14;30.00;57.20
24426;DHT22;12611;44.446;26.000;2022-09-09T12:21:49;30.00;57.30
24426;DHT22;12611;44.446;26.000;2022-09-09T12:24:25;30.10;57.40
24426;DHT22;12611;44.446;26.000;2022-09-09T12:26:59;30.10;57.20
24426;DHT22;12611;44.446;26.000;2022-09-09T12:29:37;30.20;57.20
24426;DHT22;12611;44.446;26.000;2022-09-09T12:32:10;30.10;56.80
24426;DHT22;12611;44.446;26.000;2022-09-09T12:34:41;30.20;56.90
24426;DHT22;12611;44.446;26.000;2022-09-09T12:37:20;30.20;57.00
24426;DHT22;12611;44.446;26.000;2022-09-09T12:39:54;30.20;57.20
24426;DHT22;12611;44.446;26.000;2022-09-09T12:42:24;30.20;56.90
24426;DHT22;12611;44.446;26.000;2022-09-09T12:44:54;30.20;56.90
24426;DHT22;12611;44.446;26.000;2022-09-09T12:47:26;30.20;56.70
24426;DHT22;12611;44.446;26.000;2022-09-09T12:49:58;30.20;56.50
24426;DHT22;12611;44.446;26.000;2022-09-09T12:52:30;30.20;56.40
24426;DHT22;12611;44.446;26.000;2022-09-09T12:55:02;30.10;56.20
24426;DHT22;12611;44.446;26.000;2022-09-09T12:57:34;30.20;56.30
24426;DHT22;12611;44.446;26.000;2022-09-09T13:00:07;30.20;56.40
24426;DHT22;12611;44.446;26.000;2022-09-09T13:02:46;30.20;56.20
24426;DHT22;12611;44.446;26.000;2022-09-09T13:05:19;30.10;56.20
24426;DHT22;12611;44.446;26.000;2022-09-09T13:07:47;30.10;56.00
24426;DHT22;12611;44.446;26.000;2022-09-09T13:10:22;30.10;56.10
24426;DHT22;12611;44.446;26.000;2022-09-09T13:13:14;30.10;56.30
24426;DHT22;12611;44.446;26.000;2022-09-09T13:15:50;30.10;56.50
24426;DHT22;12611;44.446;26.000;2022-09-09T13:18:22;30.10;56.50
24426;DHT22;12611;44.446;26.000;2022-09-09T13:20:53;30.10;56.50
24426;DHT22;12611;44.446;26.000;2022-09-09T13:23:22;30.00;56.40
24426;DHT22;12611;44.446;26.000;2022-09-09T13:25:55;30.00;56.30
24426;DHT22;12611;44.446;26.000;2022-09-09T13:28:25;30.00;57.00
24426;DHT22;12611;44.446;26.000;2022-09-09T13:31:00;30.00;56.60
24426;DHT22;12611;44.446;26.000;2022-09-09T13:33:32;30.00;56.50
24426;DHT22;12611;44.446;26.000;2022-09-09T13:36:04;30.00;56.50
24426;DHT22;12611;44.446;26.000;2022-09-09T13:38:36;30.00;56.40
24426;DHT22;12611;44.446;26.000;2022-09-09T13:41:07;30.00;56.50
24426;DHT22;12611;44.446;26.000;2022-09-09T13:43:48;30.00;56.50
24426;DHT22;12611;44.446;26.000;2022-09-09T13:46:30;29.90;56.50
24426;DHT22;12611;44.446;26.000;2022-09-09T13:49:00;30.00;56.60
24426;DHT22;12611;44.446;26.000;2022-09-09T13:51:38;29.90;56.60
24426;DHT22;12611;44.446;26.000;2022-09-09T13:54:10;29.90;56.80
24426;DHT22;12611;44.446;26.000;2022-09-09T13:56:39;29.90;56.90
24426;DHT22;12611;44.446;26.000;2022-09-09T13:59:12;29.90;57.00
24426;DHT22;12611;44.446;26.000;2022-09-09T14:01:40;29.90;57.10
24426;DHT22;12611;44.446;26.000;2022-09-09T14:04:09;29.90;57.20
24426;DHT22;12611;44.446;26.000;2022-09-09T14:06:39;29.80;57.20
24426;DHT22;12611;44.446;26.000;2022-09-09T14:09:12;29.80;57.20
24426;DHT22;12611;44.446;26.000;2022-09-09T14:11:40;29.80;57.40
24426;DHT22;12611;44.446;26.000;2022-09-09T14:14:09;29.80;57.60
24426;DHT22;12611;44.446;26.000;2022-09-09T14:16:38;29.70;57.70
24426;DHT22;12611;44.446;26.000;2022-09-09T14:19:07;29.70;57.80
24426;DHT22;12611;44.446;26.000;2022-09-09T14:21:35;29.70;57.90
24426;DHT22;12611;44.446;26.000;2022-09-09T14:24:05;29.70;57.80
24426;DHT22;12611;44.446;26.000;2022-09-09T14:26:34;29.70;58.00
24426;DHT22;12611;44.446;26.000;2022-09-09T14:29:02;29.70;57.90
24426;DHT22;12611;44.446;26.000;2022-09-09T14:31:30;29.70;58.10
24426;DHT22;12611;44.446;26.000;2022-09-09T14:33:59;29.60;58.10
24426;DHT22;12611;44.446;26.000;2022-09-09T14:36:27;29.60;58.20
24426;DHT22;12611;44.446;26.000;2022-09-09T14:38:56;29.60;58.20
24426;DHT22;12611;44.446;26.000;2022-09-09T14:41:25;29.60;58.40
24426;DHT22;12611;44.446;26.000;2022-09-09T14:43:56;29.50;58.50
24426;DHT22;12611;44.446;26.000;2022-09-09T14:46:24;29.50;58.60
24426;DHT22;12611;44.446;26.000;2022-09-09T14:48:53;29.50;58.90
24426;DHT22;12611;44.446;26.000;2022-09-09T14:51:22;29.40;59.30
24426;DHT22;12611;44.446;26.000;2022-09-09T14:53:52;29.30;59.60
24426;DHT22;12611;44.446;26.000;2022-09-09T14:56:23;29.30;59.90
24426;DHT22;12611;44.446;26.000;2022-09-09T14:58:54;29.20;60.50
24426;DHT22;12611;44.446;26.000;2022-09-09T15:01:24;29.10;60.90
24426;DHT22;12611;44.446;26.000;2022-09-09T15:03:55;29.00;61.00
24426;DHT22;12611;44.446;26.000;2022-09-09T15:06:25;29.00;61.40
24426;DHT22;12611;44.446;26.000;2022-09-09T15:08:54;28.90;61.70
24426;DHT22;12611;44.446;26.000;2022-09-09T15:11:27;28.90;62.00
24426;DHT22;12611;44.446;26.000;2022-09-09T15:13:58;28.80;62.40
24426;DHT22;12611;44.446;26.000;2022-09-09T15:16:28;28.80;62.60
24426;DHT22;12611;44.446;26.000;2022-09-09T15:18:58;28.80;62.80
24426;DHT22;12611;44.446;26.000;2022-09-09T15:21:28;28.70;63.00
24426;DHT22;12611;44.446;26.000;2022-09-09T15:23:57;28.70;63.30
24426;DHT22;12611;44.446;26.000;2022-09-09T15:26:26;28.60;63.50
24426;DHT22;12611;44.446;26.000;2022-09-09T15:28:55;28.60;63.80
24426;DHT22;12611;44.446;26.000;2022-09-09T15:31:28;28.50;63.80
24426;DHT22;12611;44.446;26.000;2022-09-09T15:34:00;28.50;64.00
24426;DHT22;12611;44.446;26.000;2022-09-09T15:36:30;28.50;64.00
24426;DHT22;12611;44.446;26.000;2022-09-09T15:38:59;28.40;64.00
24426;DHT22;12611;44.446;26.000;2022-09-09T15:41:28;28.40;64.20
24426;DHT22;12611;44.446;26.000;2022-09-09T15:43:57;28.30;64.20
24426;DHT22;12611;44.446;26.000;2022-09-09T15:46:31;28.30;64.40
24426;DHT22;12611;44.446;26.000;2022-09-09T15:49:04;28.20;64.40
24426;DHT22;12611;44.446;26.000;2022-09-09T15:51:33;28.20;64.60